Аэропорт: Витебск Восточный. Витебск

ICAO: UMII

METAR:
Информация по данной станции не доступна
METAR:
2021-04-21 14:06:00
TAF UMII 211406Z 2115/2124 22003G08MPS 9999 BKN015 TEMPO 2115/2124 VRB10MPS 2000 SHRA BR BKN005 BKN015CB